Artesian, Iowa
Current Conditions -  °F | °C
As of 11:54 AM on Sunday 25 Jan 2015 (Local Time) from KALO Reporting Station
Overcast Overcast  
Wind Chill: -8°   Ceiling: 4600
Heat Index: -2°   Visibility: 10mi
Dew Point: -4°   Wind: 17mph
Humidity: 82%   Direction: 20°NNE
Pressure: 29.92"   Gusts: NA
Location:  42.787°N, 92.4284°W
Report Text: KALO 251754Z AUTO 02015KT 10SM OVC046 M02/M04 A2992 RMK AO2 SLP143 60008 T10171044 10006 21022 51035
Loading
Personal Weather Stations






























Interactive Weather Map New forecast layout! Learn more

10-Day Weather Forecast

Advertisements
Track Severe Weather on mobile